Time;durP1;ratioP1;P1;durP2;ratioP2;P2;SDS_P1;SDS_P2;PMS_P1;PMS_P2;Temp;Humidity;BMP_temperature;BMP_pressure;BME280_temperature;BME280_humidity;BME280_pressure;Samples;Min_cycle;Max_cycle;Signal;HPM_P1;HPM_P2
2023/05/09 00:01:13;;;;;;;32.30;17.90;;;;;;;14.53;100.00;64216.47;4960129;28;20106;-95
2023/05/09 00:03:38;;;;;;;35.15;18.42;;;;;;;14.51;100.00;64215.06;4958592;28;20121;-95
2023/05/09 00:06:05;;;;;;;34.45;19.38;;;;;;;14.50;100.00;64213.06;4972380;28;20035;-94
2023/05/09 00:08:31;;;;;;;34.17;19.30;;;;;;;14.48;100.00;64210.72;4955696;28;20118;-96
2023/05/09 00:10:56;;;;;;;37.65;20.27;;;;;;;14.45;100.00;64208.47;4971251;28;20162;-95
2023/05/09 00:13:23;;;;;;;37.77;20.47;;;;;;;14.43;100.00;64206.28;4972359;28;20478;-96
2023/05/09 00:15:48;;;;;;;40.38;20.10;;;;;;;14.41;100.00;64204.13;4970099;28;20027;-95
2023/05/09 00:18:14;;;;;;;36.50;18.70;;;;;;;14.39;100.00;64202.88;4958566;28;20035;-95
2023/05/09 00:20:43;;;;;;;37.60;19.40;;;;;;;14.38;100.00;64201.22;4961786;28;20545;-95
2023/05/09 00:23:08;;;;;;;35.17;19.00;;;;;;;14.36;100.00;64199.56;4961230;28;20039;-95
2023/05/09 00:25:34;;;;;;;31.77;17.53;;;;;;;14.35;100.00;64198.13;4968034;28;20430;-95
2023/05/09 00:27:59;;;;;;;30.27;17.10;;;;;;;14.34;100.00;64197.28;4958877;28;20531;-95
2023/05/09 00:30:24;;;;;;;33.75;18.73;;;;;;;14.33;100.00;64196.13;4953917;28;20364;-96
2023/05/09 00:32:50;;;;;;;31.40;17.50;;;;;;;14.32;100.00;64194.81;4967607;28;20074;-96
2023/05/09 00:35:15;;;;;;;29.93;17.10;;;;;;;14.31;100.00;64193.97;4961421;28;20030;-96
2023/05/09 00:37:40;;;;;;;34.47;16.57;;;;;;;14.30;100.00;64193.38;4995252;28;20070;-95
2023/05/09 00:40:08;;;;;;;31.00;16.57;;;;;;;14.30;100.00;64193.13;4994236;28;20057;-95
2023/05/09 00:42:34;;;;;;;33.63;17.85;;;;;;;14.29;100.00;64191.97;4977988;28;20031;-95
2023/05/09 00:44:59;;;;;;;28.05;15.80;;;;;;;14.28;100.00;64191.13;4974944;28;20110;-96
2023/05/09 00:47:26;;;;;;;27.60;15.50;;;;;;;14.26;100.00;64190.38;4991882;28;20024;-95
2023/05/09 00:49:52;;;;;;;29.47;15.70;;;;;;;14.25;100.00;64188.88;4988830;28;20746;-96
2023/05/09 00:52:21;;;;;;;28.70;16.57;;;;;;;14.23;100.00;64187.53;4992823;28;20303;-95
2023/05/09 00:54:48;;;;;;;30.17;16.25;;;;;;;14.22;100.00;64186.47;4982490;28;20082;-96
2023/05/09 00:57:13;;;;;;;25.33;15.82;;;;;;;14.21;100.00;64185.47;4955525;28;20024;-96
2023/05/09 00:59:39;;;;;;;28.10;15.97;;;;;;;14.20;100.00;64184.53;4981093;28;20039;-96
2023/05/09 01:02:04;;;;;;;28.92;14.57;;;;;;;14.20;100.00;64184.47;4967002;28;20389;-96
2023/05/09 01:04:30;;;;;;;25.57;14.97;;;;;;;14.20;100.00;64185.03;4958962;28;20023;-96
2023/05/09 01:07:34;;;;;;;28.60;15.33;;;;;;;14.21;100.00;64185.63;4957681;28;20035;-96
2023/05/09 01:10:03;;;;;;;27.35;15.05;;;;;;;14.21;100.00;64186.13;4968345;28;20038;-95
2023/05/09 01:12:48;;;;;;;27.92;16.02;;;;;;;14.22;100.00;64186.38;4975936;28;20049;-96
2023/05/09 01:15:32;;;;;;;25.20;15.82;;;;;;;14.22;100.00;64186.19;4974103;28;20019;-96
2023/05/09 01:18:29;;;;;;;30.95;16.20;;;;;;;14.21;100.00;64185.47;4973505;28;20027;-96
2023/05/09 01:21:15;;;;;;;29.08;15.13;;;;;;;14.20;100.00;64184.88;4973325;28;20035;-96
2023/05/09 01:23:43;;;;;;;26.90;15.60;;;;;;;14.19;100.00;64183.94;4980448;23;20047;-95
2023/05/09 01:26:38;;;;;;;24.47;15.10;;;;;;;14.18;100.00;64182.78;4949037;29;20031;-96
2023/05/09 01:29:22;;;;;;;26.27;15.60;;;;;;;14.18;100.00;64181.72;4944074;29;20386;-96
2023/05/09 01:31:48;;;;;;;31.75;15.40;;;;;;;14.16;100.00;64179.94;4921851;29;20034;-94
2023/05/09 01:34:16;;;;;;;25.80;15.32;;;;;;;14.14;100.00;64177.78;4923123;29;20503;-95
2023/05/09 01:36:44;;;;;;;27.77;15.88;;;;;;;14.13;100.00;64176.69;4933139;29;20032;-94
2023/05/09 01:39:11;;;;;;;24.58;15.35;;;;;;;14.12;100.00;64176.28;4939712;29;20038;-94
2023/05/09 01:41:37;;;;;;;28.58;15.15;;;;;;;14.11;100.00;64174.44;4952182;29;20027;-94
2023/05/09 01:44:06;;;;;;;26.17;14.17;;;;;;;14.10;100.00;64174.03;4935211;29;20450;-92
2023/05/09 01:46:34;;;;;;;25.95;15.48;;;;;;;14.08;100.00;64172.34;4952364;29;20066;-94
2023/05/09 01:49:01;;;;;;;25.55;14.73;;;;;;;14.07;100.00;64170.94;4951299;29;20039;-93
2023/05/09 01:51:30;;;;;;;24.02;14.57;;;;;;;14.06;100.00;64169.53;4953400;29;20027;-94
2023/05/09 01:53:56;;;;;;;26.08;14.98;;;;;;;14.04;100.00;64168.19;4934942;29;20035;-93
2023/05/09 01:56:23;;;;;;;27.23;15.82;;;;;;;14.03;100.00;64166.03;4950364;29;20943;-94
2023/05/09 01:58:50;;;;;;;27.55;15.25;;;;;;;14.01;100.00;64164.53;4948365;29;20034;-94
2023/05/09 02:01:17;;;;;;;29.80;16.15;;;;;;;13.99;100.00;64162.78;4942585;29;20038;-94
2023/05/09 02:03:46;;;;;;;25.67;16.00;;;;;;;13.98;100.00;64161.25;4952101;29;20380;-95
2023/05/09 02:06:12;;;;;;;27.80;16.73;;;;;;;13.96;100.00;64159.44;4932524;29;20374;-95
2023/05/09 02:08:38;;;;;;;29.65;17.75;;;;;;;13.95;100.00;64158.19;4950781;29;20039;-95
2023/05/09 02:11:04;;;;;;;30.88;17.65;;;;;;;13.93;100.00;64156.19;4952333;29;20030;-94
2023/05/09 02:13:29;;;;;;;29.30;16.63;;;;;;;13.91;100.00;64154.44;4951985;29;20083;-94
2023/05/09 02:15:55;;;;;;;26.50;16.35;;;;;;;13.89;100.00;64152.78;4953395;29;20031;-95
2023/05/09 02:18:21;;;;;;;29.40;16.20;;;;;;;13.87;100.00;64150.78;4940547;29;20038;-94
2023/05/09 02:20:47;;;;;;;27.87;16.17;;;;;;;13.85;100.00;64148.78;4936997;29;20031;-95
2023/05/09 02:23:12;;;;;;;27.20;15.55;;;;;;;13.83;100.00;64147.00;4951397;28;20439;-94
2023/05/09 02:25:39;;;;;;;28.27;15.70;;;;;;;13.81;100.00;64145.03;4952118;29;20114;-94
2023/05/09 02:28:07;;;;;;;26.40;15.45;;;;;;;13.79;100.00;64142.75;4952505;29;20452;-94
2023/05/09 02:30:37;;;;;;;26.40;14.40;;;;;;;13.77;100.00;64140.44;4954181;29;20147;-93
2023/05/09 02:33:06;;;;;;;24.85;14.20;;;;;;;13.75;100.00;64138.09;4943046;29;20090;-94
2023/05/09 02:35:31;;;;;;;24.10;14.60;;;;;;;13.73;100.00;64136.69;4952223;29;20115;-93
2023/05/09 02:37:58;;;;;;;25.95;14.80;;;;;;;13.71;100.00;64134.75;4952751;28;20540;-94
2023/05/09 02:40:26;;;;;;;23.97;14.70;;;;;;;13.69;100.00;64132.34;4945913;29;20110;-95
2023/05/09 02:42:52;;;;;;;30.03;14.43;;;;;;;13.66;100.00;64129.59;4951998;29;20303;-93
2023/05/09 02:45:17;;;;;;;26.58;14.75;;;;;;;13.63;100.00;64127.09;4952573;29;20034;-93
2023/05/09 02:47:43;;;;;;;28.87;15.40;;;;;;;13.60;100.00;64123.34;4951699;29;20035;-93
2023/05/09 02:50:08;;;;;;;27.97;14.63;;;;;;;13.57;100.00;64120.28;4955749;28;20019;-94
2023/05/09 02:52:34;;;;;;;25.70;14.75;;;;;;;13.54;100.00;64117.09;4956276;29;20032;-94
2023/05/09 02:54:59;;;;;;;24.97;15.10;;;;;;;13.52;100.00;64114.41;4945933;29;20488;-94
2023/05/09 02:57:24;;;;;;;28.63;15.23;;;;;;;13.49;100.00;64111.00;4953460;29;20110;-94
2023/05/09 02:59:50;;;;;;;27.03;15.20;;;;;;;13.46;100.00;64108.25;4957983;29;20442;-94
2023/05/09 03:02:15;;;;;;;26.07;14.07;;;;;;;13.43;100.00;64105.34;4957493;29;20093;-94
2023/05/09 03:04:41;;;;;;;25.80;14.45;;;;;;;13.39;100.00;64101.66;4955770;29;20106;-95
2023/05/09 03:07:06;;;;;;;26.57;14.00;;;;;;;13.36;100.00;64098.50;4954514;29;20168;-94
2023/05/09 03:09:31;;;;;;;27.30;14.30;;;;;;;13.33;100.00;64095.56;4940238;29;20094;-94
2023/05/09 03:11:57;;;;;;;27.10;13.93;;;;;;;13.30;100.00;64092.66;4953876;29;20612;-94
2023/05/09 03:14:22;;;;;;;28.23;14.57;;;;;;;13.27;100.00;64089.41;4954904;28;20754;-94
2023/05/09 03:16:48;;;;;;;28.63;15.17;;;;;;;13.23;100.00;64086.00;4955461;29;20041;-94
2023/05/09 03:19:13;;;;;;;26.87;14.93;;;;;;;13.21;100.00;64083.66;4955495;29;20050;-95
2023/05/09 03:21:38;;;;;;;28.50;16.43;;;;;;;13.19;100.00;64081.84;4957571;29;20475;-92
2023/05/09 03:24:06;;;;;;;30.13;16.40;;;;;;;13.16;100.00;64079.16;4925162;29;20046;-94
2023/05/09 03:26:34;;;;;;;32.67;17.30;;;;;;;13.14;100.00;64077.25;4939617;29;20030;-93
2023/05/09 03:28:59;;;;;;;32.10;17.37;;;;;;;13.13;100.00;64075.81;4945440;29;20297;-93
2023/05/09 03:31:25;;;;;;;29.77;16.60;;;;;;;13.11;100.00;64074.41;4957824;29;20379;-93
2023/05/09 03:33:50;;;;;;;31.17;16.37;;;;;;;13.10;100.00;64073.25;4949999;29;20035;-92
2023/05/09 03:36:16;;;;;;;31.87;16.97;;;;;;;13.09;100.00;64072.25;4939442;29;20031;-94
2023/05/09 03:38:41;;;;;;;31.88;17.00;;;;;;;13.08;100.00;64071.41;4956998;29;20101;-93
2023/05/09 03:41:06;;;;;;;34.00;16.37;;;;;;;13.07;100.00;64070.66;4956906;29;20034;-95
2023/05/09 03:43:32;;;;;;;30.93;16.50;;;;;;;13.06;100.00;64069.09;4956846;29;20514;-94
2023/05/09 03:45:57;;;;;;;31.07;17.00;;;;;;;13.05;100.00;64067.66;4939469;29;20432;-94
2023/05/09 03:48:23;;;;;;;27.30;15.63;;;;;;;13.03;100.00;64066.44;4954876;29;20027;-94
2023/05/09 03:50:48;;;;;;;29.53;15.97;;;;;;;13.02;100.00;64065.94;4955625;28;20342;-94
2023/05/09 03:53:13;;;;;;;30.20;16.57;;;;;;;13.02;100.00;64065.50;4954191;29;20864;-95
2023/05/09 03:55:38;;;;;;;28.87;17.23;;;;;;;13.01;100.00;64064.34;4955176;29;20027;-93
2023/05/09 03:58:04;;;;;;;32.73;16.80;;;;;;;13.00;100.00;64063.75;4953660;29;20124;-92
2023/05/09 04:00:29;;;;;;;31.15;16.58;;;;;;;12.99;100.00;64063.25;4935795;29;20039;-94
2023/05/09 04:02:55;;;;;;;29.87;16.73;;;;;;;12.99;100.00;64062.66;4932511;29;20047;-95
2023/05/09 04:05:20;;;;;;;34.13;16.73;;;;;;;12.98;100.00;64061.91;4935681;29;20037;-95
2023/05/09 04:07:46;;;;;;;31.20;16.25;;;;;;;12.97;100.00;64061.34;4939059;29;20061;-94
2023/05/09 04:10:11;;;;;;;27.70;15.83;;;;;;;12.96;100.00;64060.34;4955362;29;20038;-95
2023/05/09 04:12:36;;;;;;;28.87;16.63;;;;;;;12.95;100.00;64060.00;4937133;29;20031;-95
2023/05/09 04:15:02;;;;;;;27.97;15.20;;;;;;;12.94;100.00;64058.84;4954197;29;20039;-94
2023/05/09 04:17:27;;;;;;;30.42;16.00;;;;;;;12.93;100.00;64057.34;4954326;29;20483;-93
2023/05/09 04:19:53;;;;;;;29.43;15.50;;;;;;;12.92;100.00;64056.75;4948242;29;20044;-93
2023/05/09 04:22:18;;;;;;;29.27;16.87;;;;;;;12.91;100.00;64055.34;4955055;29;20035;-94
2023/05/09 04:24:43;;;;;;;32.47;17.10;;;;;;;12.90;100.00;64054.59;4953186;28;20085;-94
2023/05/09 04:27:09;;;;;;;30.25;16.20;;;;;;;12.90;100.00;64054.09;4953971;29;20078;-95
2023/05/09 04:29:35;;;;;;;27.00;15.43;;;;;;;12.89;100.00;64053.41;4949585;29;20028;-94
2023/05/09 04:32:01;;;;;;;26.70;14.40;;;;;;;12.89;100.00;64053.59;4947235;29;20033;-94
2023/05/09 04:34:27;;;;;;;25.42;14.88;;;;;;;12.89;100.00;64053.25;4961206;29;20048;-93
2023/05/09 04:36:52;;;;;;;26.63;14.68;;;;;;;12.89;100.00;64053.69;4960443;29;20027;-94
2023/05/09 04:39:18;;;;;;;26.65;14.95;;;;;;;12.90;100.00;64054.34;4958655;29;20090;-94
2023/05/09 04:41:46;;;;;;;29.57;16.27;;;;;;;12.91;100.00;64055.66;4954834;29;20042;-95
2023/05/09 04:44:12;;;;;;;28.75;15.00;;;;;;;12.92;100.00;64056.66;4954353;29;20159;-94
2023/05/09 04:46:37;;;;;;;25.15;15.25;;;;;;;12.93;100.00;64058.00;4937875;29;20035;-95
2023/05/09 04:49:03;;;;;;;28.00;14.30;;;;;;;12.95;100.00;64059.25;4937803;29;20031;-94
2023/05/09 04:51:28;;;;;;;26.73;14.53;;;;;;;12.97;100.00;64061.16;4952884;29;20090;-93
2023/05/09 04:53:53;;;;;;;26.27;15.17;;;;;;;12.99;100.00;64063.66;4953729;29;20027;-95
2023/05/09 04:56:19;;;;;;;25.77;15.67;;;;;;;13.00;100.00;64065.25;4953340;29;20031;-94
2023/05/09 04:58:44;;;;;;;29.92;14.52;;;;;;;13.03;100.00;64068.31;4953714;29;20635;-94
2023/05/09 05:01:09;;;;;;;26.13;14.73;;;;;;;13.06;100.00;64071.16;4953247;29;20178;-94
2023/05/09 05:03:34;;;;;;;28.93;15.07;;;;;;;13.09;100.00;64073.91;4954336;29;20519;-95
2023/05/09 05:06:00;;;;;;;26.20;14.90;;;;;;;13.12;100.00;64077.50;4952547;29;20031;-95
2023/05/09 05:08:25;;;;;;;24.77;14.37;;;;;;;13.15;100.00;64081.06;4952481;29;20078;-95
2023/05/09 05:10:50;;;;;;;26.10;15.00;;;;;;;13.19;100.00;64084.91;4933117;29;20599;-94
2023/05/09 05:13:16;;;;;;;22.33;13.97;;;;;;;13.22;100.00;64088.16;4917720;29;20039;-94
2023/05/09 05:15:42;;;;;;;23.97;14.43;;;;;;;13.26;100.00;64091.75;4947956;29;20031;-94
2023/05/09 05:18:07;;;;;;;25.63;15.07;;;;;;;13.28;100.00;64094.00;4951375;29;20295;-93
2023/05/09 05:20:33;;;;;;;24.63;14.13;;;;;;;13.31;100.00;64097.16;4954195;29;20087;-94
2023/05/09 05:22:58;;;;;;;21.35;13.63;;;;;;;13.34;100.00;64100.00;4952377;29;20039;-93
2023/05/09 05:25:24;;;;;;;23.67;14.13;;;;;;;13.37;100.00;64102.25;4952996;28;20129;-93
2023/05/09 05:27:50;;;;;;;27.83;15.57;;;;;;;13.39;100.00;64104.34;4954206;29;20427;-93
2023/05/09 05:30:15;;;;;;;21.33;14.00;;;;;;;13.41;100.00;64106.53;4951853;29;20090;-93
2023/05/09 05:32:50;;;;;;;26.30;14.65;;;;;;;13.43;100.00;64108.41;4940453;29;20090;-94
2023/05/09 05:35:16;;;;;;;24.23;14.73;;;;;;;13.46;100.00;64111.44;4927715;29;20390;-93
2023/05/09 05:37:43;;;;;;;24.83;14.15;;;;;;;13.49;100.00;64115.34;4953973;29;20031;-92
2023/05/09 05:40:08;;;;;;;25.02;14.95;;;;;;;13.53;100.00;64118.69;4952479;29;20043;-92
2023/05/09 05:42:34;;;;;;;22.53;13.50;;;;;;;13.57;100.00;64123.19;4953214;29;20069;-92
2023/05/09 05:45:03;;;;;;;22.45;14.88;;;;;;;13.62;100.00;64128.09;4953158;29;20130;-92
2023/05/09 05:47:31;;;;;;;23.90;14.70;;;;;;;13.67;100.00;64133.69;4952280;29;20522;-92
2023/05/09 05:49:57;;;;;;;21.57;13.90;;;;;;;13.74;100.00;64140.19;4953355;29;20386;-92
2023/05/09 05:52:22;;;;;;;21.90;14.37;;;;;;;13.80;100.00;64147.03;4954439;29;20267;-92
2023/05/09 05:54:48;;;;;;;20.97;13.10;;;;;;;13.86;100.00;64153.19;4954157;29;20051;-93
2023/05/09 05:57:13;;;;;;;21.83;12.50;;;;;;;13.93;100.00;64159.94;4938246;29;20027;-91
2023/05/09 05:59:38;;;;;;;19.27;12.37;;;;;;;14.00;100.00;64167.44;4947513;29;20087;-90
2023/05/09 06:02:04;;;;;;;20.20;12.43;;;;;;;14.08;100.00;64175.44;4937733;29;20086;-91
2023/05/09 06:04:30;;;;;;;18.07;12.07;;;;;;;14.15;100.00;64182.78;4947397;29;20059;-87
2023/05/09 06:06:55;;;;;;;17.00;11.97;;;;;;;14.23;100.00;64190.81;4949008;29;20337;-85
2023/05/09 06:09:20;;;;;;;16.77;11.63;;;;;;;14.31;100.00;64198.88;4950227;29;20471;-88
2023/05/09 06:11:46;;;;;;;16.53;10.83;;;;;;;14.38;100.00;64206.63;4950689;29;20034;-87
2023/05/09 06:14:11;;;;;;;17.80;11.67;;;;;;;14.46;100.00;64214.06;4957043;28;20062;-84
2023/05/09 06:16:36;;;;;;;17.57;11.67;;;;;;;14.53;100.00;64221.72;4951524;29;20031;-83
2023/05/09 06:19:01;;;;;;;19.20;12.93;;;;;;;14.60;100.00;64228.56;4964179;28;20114;-86
2023/05/09 06:21:27;;;;;;;18.40;11.30;;;;;;;14.66;100.00;64234.75;4971242;28;20081;-85
2023/05/09 06:23:52;;;;;;;18.23;12.23;;;;;;;14.73;100.00;64241.34;4961507;28;20082;-85
2023/05/09 06:26:17;;;;;;;17.87;11.40;;;;;;;14.78;100.00;64247.13;4936381;29;20038;-85
2023/05/09 06:28:43;;;;;;;20.03;12.20;;;;;;;14.84;100.00;64252.78;4945622;28;20024;-84
2023/05/09 06:31:08;;;;;;;16.93;11.63;;;;;;;14.89;100.00;64258.28;4957301;28;20086;-84
2023/05/09 06:33:33;;;;;;;16.37;10.83;;;;;;;14.94;100.00;64262.94;4943766;29;20031;-84
2023/05/09 06:35:59;;;;;;;17.00;11.73;;;;;;;14.99;100.00;64268.38;4954785;29;20030;-84
2023/05/09 06:38:24;;;;;;;17.42;11.65;;;;;;;15.05;100.00;64273.88;4955420;29;20490;-85
2023/05/09 06:40:50;;;;;;;20.57;10.90;;;;;;;15.10;100.00;64278.91;4952903;29;20062;-86
2023/05/09 06:43:15;;;;;;;17.00;11.73;;;;;;;15.14;100.00;64283.47;4936198;29;20543;-85
2023/05/09 06:45:40;;;;;;;17.23;11.50;;;;;;;15.19;100.00;64288.00;4955900;28;20053;-85
2023/05/09 06:48:06;;;;;;;16.35;11.15;;;;;;;15.23;100.00;64292.75;4974743;28;20035;-85
2023/05/09 06:50:31;;;;;;;15.70;10.53;;;;;;;15.28;100.00;64297.00;4962769;28;20403;-85
2023/05/09 06:52:56;;;;;;;15.23;10.83;;;;;;;15.33;100.00;64302.09;4954908;29;20027;-85
2023/05/09 06:55:21;;;;;;;14.43;10.77;;;;;;;15.38;100.00;64307.84;4954780;29;20576;-85
2023/05/09 06:57:47;;;;;;;17.43;11.13;;;;;;;15.44;100.00;64313.88;4938075;29;20114;-86
2023/05/09 07:00:13;;;;;;;16.40;10.53;;;;;;;15.50;100.00;64321.22;4948641;28;20048;-86
2023/05/09 07:02:40;;;;;;;13.57;9.52;;;;;;;15.58;100.00;64328.97;4932504;29;20131;-86
2023/05/09 07:05:07;;;;;;;14.38;10.02;;;;;;;15.65;100.00;64336.41;4954358;29;20078;-86
2023/05/09 07:07:32;;;;;;;19.15;8.88;;;;;;;15.73;100.00;64343.75;4955529;29;20037;-87
2023/05/09 07:09:59;;;;;;;14.87;9.87;;;;;;;15.79;100.00;64350.25;4955439;29;20110;-86
2023/05/09 07:12:25;;;;;;;16.30;10.10;;;;;;;15.85;100.00;64355.94;4955512;29;20039;-86
2023/05/09 07:14:50;;;;;;;17.27;9.50;;;;;;;15.90;100.00;64361.13;4955440;29;20046;-87
2023/05/09 07:17:16;;;;;;;13.43;8.93;;;;;;;15.95;100.00;64366.38;4954891;29;20074;-86
2023/05/09 07:19:41;;;;;;;16.20;9.43;;;;;;;15.98;100.00;64369.38;4953744;29;20027;-87
2023/05/09 07:22:06;;;;;;;12.17;9.03;;;;;;;16.02;100.00;64373.72;4954525;29;20486;-86
2023/05/09 07:24:31;;;;;;;13.30;8.60;;;;;;;16.05;100.00;64376.66;4954684;28;20058;-86
2023/05/09 07:26:57;;;;;;;14.00;8.67;;;;;;;16.07;100.00;64378.66;4954203;29;20027;-86
2023/05/09 07:29:22;;;;;;;12.80;8.30;;;;;;;16.09;100.00;64380.91;4955015;29;20115;-87
2023/05/09 07:31:47;;;;;;;9.27;7.80;;;;;;;16.11;100.00;64383.41;4954177;29;20038;-86
2023/05/09 07:34:15;;;;;;;10.83;8.40;;;;;;;16.13;100.00;64385.75;4954548;28;20087;-86
2023/05/09 07:36:40;;;;;;;10.23;7.80;;;;;;;16.16;100.00;64388.16;4953414;29;20031;-86
2023/05/09 07:39:06;;;;;;;11.67;8.00;;;;;;;16.18;100.00;64390.59;4954725;29;20279;-86
2023/05/09 07:41:32;;;;;;;13.77;7.85;;;;;;;16.20;100.00;64392.94;4937582;29;20391;-86
2023/05/09 07:43:57;;;;;;;11.00;7.27;;;;;;;16.22;100.00;64394.69;4937043;29;20027;-87
2023/05/09 07:46:22;;;;;;;10.33;7.20;;;;;;;16.23;100.00;64395.13;4951006;29;20027;-86
2023/05/09 07:48:49;;;;;;;11.43;6.83;;;;;;;16.23;100.00;64395.88;4935460;29;20031;-86
2023/05/09 07:51:14;;;;;;;9.02;7.05;;;;;;;16.23;100.00;64396.34;4935122;29;20031;-86
2023/05/09 07:53:39;;;;;;;10.67;7.10;;;;;;;16.24;100.00;64397.53;4935835;29;20040;-86
2023/05/09 07:56:08;;;;;;;9.03;7.57;;;;;;;16.24;100.00;64397.28;4937459;29;20482;-90
2023/05/09 07:58:33;;;;;;;10.05;6.75;;;;;;;16.23;100.00;64395.88;4939118;29;20036;-85
2023/05/09 08:00:58;;;;;;;9.50;6.97;;;;;;;16.20;100.00;64393.19;4945296;29;20399;-87
2023/05/09 08:03:24;;;;;;;8.65;7.00;;;;;;;16.17;100.00;64390.44;4956534;29;20042;-87
2023/05/09 08:05:54;;;;;;;9.43;7.27;;;;;;;16.14;100.00;64387.09;4954843;29;20851;-87
2023/05/09 08:08:19;;;;;;;11.82;7.63;;;;;;;16.12;100.00;64384.94;4958803;29;20019;-88
2023/05/09 08:10:45;;;;;;;9.57;7.30;;;;;;;16.09;100.00;64382.00;4935218;29;20027;-87
2023/05/09 08:13:10;;;;;;;9.60;7.30;;;;;;;16.05;100.00;64378.16;4956910;29;20027;-87
2023/05/09 08:15:35;;;;;;;8.70;7.47;;;;;;;16.01;100.00;64374.56;4956177;28;20031;-88
2023/05/09 08:18:00;;;;;;;10.30;7.25;;;;;;;15.98;100.00;64371.13;4957189;29;20050;-88
2023/05/09 08:20:26;;;;;;;9.40;7.03;;;;;;;15.95;100.00;64368.31;4957304;29;20034;-88
2023/05/09 08:22:51;;;;;;;9.70;6.83;;;;;;;15.94;100.00;64366.78;4955212;29;20054;-88
2023/05/09 08:25:17;;;;;;;11.40;7.77;;;;;;;15.93;100.00;64366.06;4947662;28;20038;-88
2023/05/09 08:27:42;;;;;;;10.83;7.00;;;;;;;15.94;100.00;64367.06;4934384;29;20114;-87
2023/05/09 08:30:09;;;;;;;15.73;7.38;;;;;;;15.97;100.00;64370.06;4934606;29;20034;-88
2023/05/09 08:32:35;;;;;;;11.63;6.85;;;;;;;16.02;100.00;64374.31;4934866;29;20394;-87
2023/05/09 08:35:00;;;;;;;8.93;7.10;;;;;;;16.07;100.00;64380.06;4933838;29;20040;-87
2023/05/09 08:37:26;;;;;;;10.03;7.00;;;;;;;16.12;100.00;64385.00;4934882;29;20055;-87
2023/05/09 08:39:52;;;;;;;7.85;6.68;;;;;;;16.16;100.00;64389.19;4934855;29;20082;-87
2023/05/09 08:42:21;;;;;;;9.23;6.83;;;;;;;16.20;100.00;64393.03;4948320;29;20066;-87
2023/05/09 08:44:47;;;;;;;10.82;7.50;;;;;;;16.23;100.00;64396.03;4936700;29;20058;-87
2023/05/09 08:47:13;;;;;;;9.13;6.68;;;;;;;16.25;100.00;64398.44;4952596;28;20051;-87
2023/05/09 08:49:40;;;;;;;10.00;6.87;;;;;;;16.26;100.00;64399.53;4954616;29;20046;-87
2023/05/09 08:52:05;;;;;;;7.23;6.57;;;;;;;16.25;100.00;64397.97;4936755;29;20275;-87
2023/05/09 08:54:31;;;;;;;10.85;7.53;;;;;;;16.21;100.00;64395.19;4954271;29;20034;-89
2023/05/09 08:56:56;;;;;;;9.90;7.50;;;;;;;16.17;100.00;64390.44;4955588;29;20751;-88
2023/05/09 08:59:23;;;;;;;9.55;7.47;;;;;;;16.12;100.00;64386.16;4936038;29;20033;-88
2023/05/09 09:01:49;;;;;;;9.03;7.73;;;;;;;16.08;100.00;64381.75;4954167;29;20030;-89
2023/05/09 09:04:15;;;;;;;9.63;7.57;;;;;;;16.03;100.00;64376.91;4954149;29;20334;-89
2023/05/09 09:06:40;;;;;;;9.35;6.50;;;;;;;15.99;100.00;64371.66;4954431;29;20419;-89
2023/05/09 09:09:10;;;;;;;8.17;6.50;;;;;;;15.95;100.00;64368.63;4937019;29;20038;-90
2023/05/09 09:11:37;;;;;;;7.70;6.03;;;;;;;15.93;100.00;64366.22;4953724;29;20166;-89
2023/05/09 09:14:12;;;;;;;6.85;5.38;;;;;;;15.92;100.00;64364.72;4952344;29;20074;-89
2023/05/09 09:16:40;;;;;;;5.15;4.68;;;;;;;15.90;100.00;64363.47;4935489;29;20035;-89
2023/05/09 09:19:10;;;;;;;10.50;4.30;;;;;;;15.89;100.00;64362.38;4936372;29;20032;-90
2023/05/09 09:24:43;;;;;;;6.37;4.10;;;;;;;15.84;100.00;64357.84;4927226;29;20062;-90
2023/05/09 09:27:08;;;;;;;4.22;3.55;;;;;;;15.81;100.00;64354.34;4942327;29;20087;-91
2023/05/09 09:29:34;;;;;;;4.17;3.07;;;;;;;15.77;100.00;64350.66;4962862;29;20023;-90
2023/05/09 09:32:04;;;;;;;5.80;3.10;;;;;;;15.73;100.00;64346.50;4969299;29;20083;-89
2023/05/09 09:34:29;;;;;;;4.05;3.45;;;;;;;15.69;100.00;64342.56;4969549;29;20043;-90
2023/05/09 09:36:57;;;;;;;3.33;2.80;;;;;;;15.65;100.00;64338.22;4955755;29;20027;-89
2023/05/09 09:39:22;;;;;;;4.78;3.22;;;;;;;15.61;100.00;64334.06;4960832;29;20024;-90
2023/05/09 09:41:48;;;;;;;6.13;3.03;;;;;;;15.56;100.00;64329.38;4947796;29;20055;-90
2023/05/09 09:44:18;;;;;;;4.53;3.47;;;;;;;15.51;100.00;64324.47;4930761;29;20024;-89
2023/05/09 09:46:54;;;;;;;4.60;3.40;;;;;;;15.47;100.00;64320.03;4944759;29;20040;-90
2023/05/09 09:49:21;;;;;;;4.47;3.20;;;;;;;15.43;100.00;64315.63;4952566;29;20373;-88
2023/05/09 09:51:51;;;;;;;4.88;3.30;;;;;;;15.39;100.00;64311.44;4961697;29;20758;-89
2023/05/09 09:54:16;;;;;;;3.95;3.42;;;;;;;15.36;100.00;64308.44;4961650;29;20042;-90
2023/05/09 09:56:44;;;;;;;6.47;3.58;;;;;;;15.33;100.00;64306.09;4960071;29;20732;-88
2023/05/09 09:59:17;;;;;;;6.60;3.42;;;;;;;15.32;100.00;64304.59;4954023;28;20102;-88
2023/05/09 10:02:04;;;;;;;5.15;3.58;;;;;;;15.30;100.00;64303.50;4955378;29;20467;-89
2023/05/09 10:04:31;;;;;;;4.10;3.70;;;;;;;15.30;100.00;64302.69;4955500;29;20078;-89
2023/05/09 10:06:59;;;;;;;5.27;3.97;;;;;;;15.30;100.00;64303.00;4953693;29;20281;-89
2023/05/09 10:09:26;;;;;;;3.85;3.45;;;;;;;15.31;100.00;64304.19;4937448;29;20036;-89
2023/05/09 10:11:53;;;;;;;5.45;3.20;;;;;;;15.33;100.00;64306.25;4933966;29;20159;-89
2023/05/09 10:14:21;;;;;;;4.85;3.50;;;;;;;15.34;100.00;64307.28;4937341;29;20034;-89
2023/05/09 10:16:53;;;;;;;4.78;3.63;;;;;;;15.34;100.00;64307.69;4952662;29;20028;-89
2023/05/09 10:19:20;;;;;;;4.90;3.53;;;;;;;15.35;100.00;64307.94;4935137;29;20126;-90
2023/05/09 10:21:51;;;;;;;5.30;3.97;;;;;;;15.34;100.00;64307.59;4952169;29;20063;-89
2023/05/09 10:24:25;;;;;;;4.50;3.83;;;;;;;15.33;100.00;64305.94;4952175;29;20036;-91
2023/05/09 10:26:56;;;;;;;4.00;3.58;;;;;;;15.31;100.00;64304.09;4952824;29;20027;-90
2023/05/09 10:29:24;;;;;;;5.37;3.97;;;;;;;15.28;100.00;64301.25;4953335;29;20082;-90
2023/05/09 10:31:55;;;;;;;5.27;3.77;;;;;;;15.25;100.00;64298.75;4952934;29;20365;-90
2023/05/09 10:34:24;;;;;;;4.68;3.75;;;;;;;15.23;100.00;64296.75;4952868;29;20047;-90
2023/05/09 10:36:49;;;;;;;4.40;3.92;;;;;;;15.21;100.00;64294.34;4952520;29;20431;-90
2023/05/09 10:39:16;;;;;;;5.78;3.85;;;;;;;15.19;100.00;64292.69;4940616;29;20114;-89
2023/05/09 10:41:42;;;;;;;6.97;4.22;;;;;;;15.18;100.00;64291.25;4933210;29;20027;-89
2023/05/09 10:44:08;;;;;;;7.50;4.33;;;;;;;15.17;100.00;64290.34;4949836;29;20086;-89
2023/05/09 10:46:34;;;;;;;7.55;4.55;;;;;;;15.17;100.00;64290.06;4952299;29;20570;-90
2023/05/09 10:49:00;;;;;;;6.70;4.72;;;;;;;15.17;100.00;64289.81;4934992;29;20069;-89
2023/05/09 10:51:26;;;;;;;5.00;4.53;;;;;;;15.15;100.00;64288.50;4952554;29;20055;-90
2023/05/09 10:53:52;;;;;;;4.80;4.27;;;;;;;15.13;100.00;64286.25;4952373;29;20301;-89
2023/05/09 10:56:37;;;;;;;7.32;4.57;;;;;;;15.11;100.00;64283.56;4934002;29;20038;-89
2023/05/09 10:59:02;;;;;;;7.75;5.00;;;;;;;15.09;100.00;64281.56;4952002;29;20035;-89
2023/05/09 11:01:31;;;;;;;6.77;5.33;;;;;;;15.07;100.00;64280.50;4952538;29;20028;-89
2023/05/09 11:03:58;;;;;;;7.88;5.32;;;;;;;15.06;100.00;64279.16;4951480;29;20913;-88
2023/05/09 11:06:50;;;;;;;7.50;5.30;;;;;;;15.05;100.00;64277.97;4951615;29;20113;-88
2023/05/09 11:09:29;;;;;;;7.68;4.97;;;;;;;15.03;100.00;64276.66;4934295;28;20030;-88
2023/05/09 11:12:00;;;;;;;6.97;5.65;;;;;;;15.01;100.00;64274.31;4955579;29;20038;-88
2023/05/09 11:14:29;;;;;;;8.55;5.15;;;;;;;14.99;100.00;64271.47;4955566;29;20031;-88
2023/05/09 11:17:09;;;;;;;8.35;5.05;;;;;;;14.96;100.00;64269.28;4937696;29;20035;-88